sensor_id;sensor_type;location;lat;lon;timestamp;temperature;humidity
24686;DHT22;12804;51.176;4.452;2023-05-10T00:01:38;13.50;99.90
24686;DHT22;12804;51.176;4.452;2023-05-10T00:04:04;13.40;99.90
24686;DHT22;12804;51.176;4.452;2023-05-10T00:06:30;13.30;99.90
24686;DHT22;12804;51.176;4.452;2023-05-10T00:08:56;13.40;99.90
24686;DHT22;12804;51.176;4.452;2023-05-10T00:11:21;13.30;99.90
24686;DHT22;12804;51.176;4.452;2023-05-10T00:13:47;13.30;99.90
24686;DHT22;12804;51.176;4.452;2023-05-10T00:16:13;13.30;99.90
24686;DHT22;12804;51.176;4.452;2023-05-10T00:18:39;13.30;99.90
24686;DHT22;12804;51.176;4.452;2023-05-10T00:21:06;13.30;99.90
24686;DHT22;12804;51.176;4.452;2023-05-10T00:23:31;13.30;99.90
24686;DHT22;12804;51.176;4.452;2023-05-10T00:25:57;13.40;99.90
24686;DHT22;12804;51.176;4.452;2023-05-10T00:28:23;13.50;99.90
24686;DHT22;12804;51.176;4.452;2023-05-10T00:30:49;13.60;99.90
24686;DHT22;12804;51.176;4.452;2023-05-10T00:33:15;13.60;99.90
24686;DHT22;12804;51.176;4.452;2023-05-10T00:35:41;13.40;99.90
24686;DHT22;12804;51.176;4.452;2023-05-10T00:38:08;13.40;99.90
24686;DHT22;12804;51.176;4.452;2023-05-10T00:40:35;13.40;99.90
24686;DHT22;12804;51.176;4.452;2023-05-10T00:43:04;13.30;99.90
24686;DHT22;12804;51.176;4.452;2023-05-10T00:45:32;13.30;99.90
24686;DHT22;12804;51.176;4.452;2023-05-10T00:48:00;13.40;99.90
24686;DHT22;12804;51.176;4.452;2023-05-10T00:50:31;13.40;99.90
24686;DHT22;12804;51.176;4.452;2023-05-10T00:52:59;13.40;99.90
24686;DHT22;12804;51.176;4.452;2023-05-10T00:55:25;13.40;99.90
24686;DHT22;12804;51.176;4.452;2023-05-10T00:57:53;13.40;99.90
24686;DHT22;12804;51.176;4.452;2023-05-10T01:00:19;13.50;99.90
24686;DHT22;12804;51.176;4.452;2023-05-10T01:02:46;13.60;99.90
24686;DHT22;12804;51.176;4.452;2023-05-10T01:05:12;13.60;99.90
24686;DHT22;12804;51.176;4.452;2023-05-10T01:07:39;13.50;99.90
24686;DHT22;12804;51.176;4.452;2023-05-10T01:10:06;13.30;99.90
24686;DHT22;12804;51.176;4.452;2023-05-10T01:12:38;13.20;99.90
24686;DHT22;12804;51.176;4.452;2023-05-10T01:15:07;13.10;99.90
24686;DHT22;12804;51.176;4.452;2023-05-10T01:17:35;13.10;99.90
24686;DHT22;12804;51.176;4.452;2023-05-10T01:20:02;13.10;99.90
24686;DHT22;12804;51.176;4.452;2023-05-10T01:22:50;13.20;99.90
24686;DHT22;12804;51.176;4.452;2023-05-10T01:34:05;13.20;99.90
24686;DHT22;12804;51.176;4.452;2023-05-10T01:36:47;13.10;99.90
24686;DHT22;12804;51.176;4.452;2023-05-10T01:39:20;13.10;99.90
24686;DHT22;12804;51.176;4.452;2023-05-10T01:41:54;13.20;99.90
24686;DHT22;12804;51.176;4.452;2023-05-10T01:47:09;13.50;99.90
24686;DHT22;12804;51.176;4.452;2023-05-10T01:49:56;13.60;99.90
24686;DHT22;12804;51.176;4.452;2023-05-10T01:52:33;13.60;99.90
24686;DHT22;12804;51.176;4.452;2023-05-10T01:55:02;13.70;99.90
24686;DHT22;12804;51.176;4.452;2023-05-10T01:57:35;13.70;99.90
24686;DHT22;12804;51.176;4.452;2023-05-10T02:00:03;13.70;99.90
24686;DHT22;12804;51.176;4.452;2023-05-10T02:02:42;13.70;99.90
24686;DHT22;12804;51.176;4.452;2023-05-10T02:05:12;13.80;99.90
24686;DHT22;12804;51.176;4.452;2023-05-10T02:07:39;13.90;99.90
24686;DHT22;12804;51.176;4.452;2023-05-10T02:10:07;13.90;99.90
24686;DHT22;12804;51.176;4.452;2023-05-10T02:12:41;13.80;99.90
24686;DHT22;12804;51.176;4.452;2023-05-10T02:15:08;13.90;99.90
24686;DHT22;12804;51.176;4.452;2023-05-10T02:17:37;13.90;99.90
24686;DHT22;12804;51.176;4.452;2023-05-10T02:20:06;13.90;99.90
24686;DHT22;12804;51.176;4.452;2023-05-10T02:22:32;14.00;99.90
24686;DHT22;12804;51.176;4.452;2023-05-10T02:25:00;13.90;99.90
24686;DHT22;12804;51.176;4.452;2023-05-10T02:27:27;13.90;99.90
24686;DHT22;12804;51.176;4.452;2023-05-10T02:29:55;13.90;99.90
24686;DHT22;12804;51.176;4.452;2023-05-10T02:32:24;13.90;99.90
24686;DHT22;12804;51.176;4.452;2023-05-10T02:34:51;13.90;99.90
24686;DHT22;12804;51.176;4.452;2023-05-10T02:37:21;13.70;99.90
24686;DHT22;12804;51.176;4.452;2023-05-10T02:39:49;13.80;99.90
24686;DHT22;12804;51.176;4.452;2023-05-10T02:42:18;13.90;99.90
24686;DHT22;12804;51.176;4.452;2023-05-10T02:44:50;13.70;99.90
24686;DHT22;12804;51.176;4.452;2023-05-10T02:47:17;13.70;99.90
24686;DHT22;12804;51.176;4.452;2023-05-10T02:49:43;13.60;99.90
24686;DHT22;12804;51.176;4.452;2023-05-10T02:52:10;13.80;99.90
24686;DHT22;12804;51.176;4.452;2023-05-10T02:54:49;13.70;99.90
24686;DHT22;12804;51.176;4.452;2023-05-10T02:57:17;13.80;99.90
24686;DHT22;12804;51.176;4.452;2023-05-10T02:59:46;13.80;99.90
24686;DHT22;12804;51.176;4.452;2023-05-10T03:02:15;13.70;99.90
24686;DHT22;12804;51.176;4.452;2023-05-10T03:04:41;13.60;99.90
24686;DHT22;12804;51.176;4.452;2023-05-10T03:07:07;13.50;99.90
24686;DHT22;12804;51.176;4.452;2023-05-10T03:09:34;13.60;99.90
24686;DHT22;12804;51.176;4.452;2023-05-10T03:12:20;13.60;99.90
24686;DHT22;12804;51.176;4.452;2023-05-10T03:17:32;13.70;99.90
24686;DHT22;12804;51.176;4.452;2023-05-10T03:20:16;13.70;99.90
24686;DHT22;12804;51.176;4.452;2023-05-10T03:23:02;13.70;99.90
24686;DHT22;12804;51.176;4.452;2023-05-10T03:25:31;13.60;99.90
24686;DHT22;12804;51.176;4.452;2023-05-10T03:27:58;13.60;99.90
24686;DHT22;12804;51.176;4.452;2023-05-10T03:30:25;13.60;99.90
24686;DHT22;12804;51.176;4.452;2023-05-10T03:32:51;13.70;99.90
24686;DHT22;12804;51.176;4.452;2023-05-10T03:35:18;13.70;99.90
24686;DHT22;12804;51.176;4.452;2023-05-10T03:37:44;13.50;99.90
24686;DHT22;12804;51.176;4.452;2023-05-10T03:40:10;13.50;99.90
24686;DHT22;12804;51.176;4.452;2023-05-10T03:42:38;13.50;99.90
24686;DHT22;12804;51.176;4.452;2023-05-10T03:45:05;13.50;99.90
24686;DHT22;12804;51.176;4.452;2023-05-10T03:47:31;13.50;99.90
24686;DHT22;12804;51.176;4.452;2023-05-10T03:49:58;13.60;99.90
24686;DHT22;12804;51.176;4.452;2023-05-10T03:52:24;13.50;99.90
24686;DHT22;12804;51.176;4.452;2023-05-10T03:54:50;13.50;99.90
24686;DHT22;12804;51.176;4.452;2023-05-10T03:57:16;13.50;99.90
24686;DHT22;12804;51.176;4.452;2023-05-10T03:59:42;13.60;99.90
24686;DHT22;12804;51.176;4.452;2023-05-10T04:02:08;13.50;99.90
24686;DHT22;12804;51.176;4.452;2023-05-10T04:04:35;13.50;99.90
24686;DHT22;12804;51.176;4.452;2023-05-10T04:07:01;13.50;99.90
24686;DHT22;12804;51.176;4.452;2023-05-10T04:09:28;13.60;99.90
24686;DHT22;12804;51.176;4.452;2023-05-10T04:11:54;13.60;99.90
24686;DHT22;12804;51.176;4.452;2023-05-10T04:14:19;13.40;99.90
24686;DHT22;12804;51.176;4.452;2023-05-10T04:16:45;13.40;99.90
24686;DHT22;12804;51.176;4.452;2023-05-10T04:19:11;13.40;99.90
24686;DHT22;12804;51.176;4.452;2023-05-10T04:21:37;13.40;99.90
24686;DHT22;12804;51.176;4.452;2023-05-10T04:24:03;13.30;99.90
24686;DHT22;12804;51.176;4.452;2023-05-10T04:26:29;13.40;99.90
24686;DHT22;12804;51.176;4.452;2023-05-10T04:28:54;13.30;99.90
24686;DHT22;12804;51.176;4.452;2023-05-10T04:31:20;13.30;99.90
24686;DHT22;12804;51.176;4.452;2023-05-10T04:33:47;13.10;99.90
24686;DHT22;12804;51.176;4.452;2023-05-10T04:36:12;13.20;99.90
24686;DHT22;12804;51.176;4.452;2023-05-10T04:38:38;13.30;99.90
24686;DHT22;12804;51.176;4.452;2023-05-10T04:41:08;13.30;99.90
24686;DHT22;12804;51.176;4.452;2023-05-10T04:43:35;13.40;99.90
24686;DHT22;12804;51.176;4.452;2023-05-10T04:46:02;13.30;99.90
24686;DHT22;12804;51.176;4.452;2023-05-10T04:48:28;13.30;99.90
24686;DHT22;12804;51.176;4.452;2023-05-10T04:50:54;13.30;99.90
24686;DHT22;12804;51.176;4.452;2023-05-10T04:53:20;13.30;99.90
24686;DHT22;12804;51.176;4.452;2023-05-10T04:55:46;13.20;99.90
24686;DHT22;12804;51.176;4.452;2023-05-10T04:58:12;13.10;99.90
24686;DHT22;12804;51.176;4.452;2023-05-10T05:00:38;13.10;99.90
24686;DHT22;12804;51.176;4.452;2023-05-10T05:03:04;13.00;99.90
24686;DHT22;12804;51.176;4.452;2023-05-10T05:05:30;13.20;99.90
24686;DHT22;12804;51.176;4.452;2023-05-10T05:07:56;13.30;99.90
24686;DHT22;12804;51.176;4.452;2023-05-10T05:10:22;13.30;99.90
24686;DHT22;12804;51.176;4.452;2023-05-10T05:12:48;13.40;99.90
24686;DHT22;12804;51.176;4.452;2023-05-10T05:15:15;13.40;99.90
24686;DHT22;12804;51.176;4.452;2023-05-10T05:17:42;13.50;99.90
24686;DHT22;12804;51.176;4.452;2023-05-10T05:20:09;13.50;99.90
24686;DHT22;12804;51.176;4.452;2023-05-10T05:22:38;13.70;99.90
24686;DHT22;12804;51.176;4.452;2023-05-10T05:25:05;14.00;99.90
24686;DHT22;12804;51.176;4.452;2023-05-10T05:27:31;14.10;99.90
24686;DHT22;12804;51.176;4.452;2023-05-10T05:29:57;14.20;99.90
24686;DHT22;12804;51.176;4.452;2023-05-10T05:32:24;14.20;99.90
24686;DHT22;12804;51.176;4.452;2023-05-10T05:34:50;14.30;99.90
24686;DHT22;12804;51.176;4.452;2023-05-10T05:37:20;14.30;99.90
24686;DHT22;12804;51.176;4.452;2023-05-10T05:39:49;14.30;99.90
24686;DHT22;12804;51.176;4.452;2023-05-10T05:42:15;14.40;99.90
24686;DHT22;12804;51.176;4.452;2023-05-10T05:44:43;14.30;99.90
24686;DHT22;12804;51.176;4.452;2023-05-10T05:47:09;14.30;99.90
24686;DHT22;12804;51.176;4.452;2023-05-10T05:49:36;14.50;99.90
24686;DHT22;12804;51.176;4.452;2023-05-10T05:52:03;14.40;99.90
24686;DHT22;12804;51.176;4.452;2023-05-10T05:54:29;14.40;99.90
24686;DHT22;12804;51.176;4.452;2023-05-10T05:56:57;14.20;99.90
24686;DHT22;12804;51.176;4.452;2023-05-10T05:59:23;14.40;99.90
24686;DHT22;12804;51.176;4.452;2023-05-10T06:01:49;14.50;99.90
24686;DHT22;12804;51.176;4.452;2023-05-10T06:04:15;14.30;99.90
24686;DHT22;12804;51.176;4.452;2023-05-10T06:06:41;14.40;99.90
24686;DHT22;12804;51.176;4.452;2023-05-10T06:09:08;14.50;99.90
24686;DHT22;12804;51.176;4.452;2023-05-10T06:11:34;14.50;99.90
24686;DHT22;12804;51.176;4.452;2023-05-10T06:14:00;14.50;99.90
24686;DHT22;12804;51.176;4.452;2023-05-10T06:16:27;14.30;99.90
24686;DHT22;12804;51.176;4.452;2023-05-10T06:18:53;14.30;99.90
24686;DHT22;12804;51.176;4.452;2023-05-10T06:21:19;14.30;99.90
24686;DHT22;12804;51.176;4.452;2023-05-10T06:23:45;14.30;99.90
24686;DHT22;12804;51.176;4.452;2023-05-10T06:26:11;14.70;99.90
24686;DHT22;12804;51.176;4.452;2023-05-10T06:28:37;14.70;99.90
24686;DHT22;12804;51.176;4.452;2023-05-10T06:31:06;14.80;99.90
24686;DHT22;12804;51.176;4.452;2023-05-10T06:33:32;14.80;99.90
24686;DHT22;12804;51.176;4.452;2023-05-10T06:35:58;15.10;99.90
24686;DHT22;12804;51.176;4.452;2023-05-10T06:38:24;15.30;99.90
24686;DHT22;12804;51.176;4.452;2023-05-10T06:40:50;15.40;99.90
24686;DHT22;12804;51.176;4.452;2023-05-10T06:43:16;15.40;99.90
24686;DHT22;12804;51.176;4.452;2023-05-10T06:45:42;15.50;99.90
24686;DHT22;12804;51.176;4.452;2023-05-10T06:48:08;15.40;99.90
24686;DHT22;12804;51.176;4.452;2023-05-10T06:50:33;15.40;99.90
24686;DHT22;12804;51.176;4.452;2023-05-10T06:53:00;15.30;99.90
24686;DHT22;12804;51.176;4.452;2023-05-10T06:55:27;15.30;99.90
24686;DHT22;12804;51.176;4.452;2023-05-10T06:57:53;15.00;99.90
24686;DHT22;12804;51.176;4.452;2023-05-10T07:00:20;14.90;99.90
24686;DHT22;12804;51.176;4.452;2023-05-10T07:02:46;15.10;99.90
24686;DHT22;12804;51.176;4.452;2023-05-10T07:05:12;15.30;99.90
24686;DHT22;12804;51.176;4.452;2023-05-10T07:07:39;15.20;99.90
24686;DHT22;12804;51.176;4.452;2023-05-10T07:10:05;15.10;99.90
24686;DHT22;12804;51.176;4.452;2023-05-10T07:12:31;15.10;99.90
24686;DHT22;12804;51.176;4.452;2023-05-10T07:14:57;15.20;99.90
24686;DHT22;12804;51.176;4.452;2023-05-10T07:17:23;15.30;99.90
24686;DHT22;12804;51.176;4.452;2023-05-10T07:19:49;15.20;99.90
24686;DHT22;12804;51.176;4.452;2023-05-10T07:22:15;15.50;99.90
24686;DHT22;12804;51.176;4.452;2023-05-10T07:24:42;15.60;99.90
24686;DHT22;12804;51.176;4.452;2023-05-10T07:27:08;15.60;99.90
24686;DHT22;12804;51.176;4.452;2023-05-10T07:29:35;15.80;99.60
24686;DHT22;12804;51.176;4.452;2023-05-10T07:32:01;15.70;99.90
24686;DHT22;12804;51.176;4.452;2023-05-10T07:34:27;15.60;98.80
24686;DHT22;12804;51.176;4.452;2023-05-10T07:36:54;15.70;99.90
24686;DHT22;12804;51.176;4.452;2023-05-10T07:39:20;15.80;98.20
24686;DHT22;12804;51.176;4.452;2023-05-10T07:41:48;16.00;98.90
24686;DHT22;12804;51.176;4.452;2023-05-10T07:44:14;16.00;99.80
24686;DHT22;12804;51.176;4.452;2023-05-10T07:46:40;16.20;96.40
24686;DHT22;12804;51.176;4.452;2023-05-10T07:49:06;16.50;95.10
24686;DHT22;12804;51.176;4.452;2023-05-10T07:51:32;16.60;93.80
24686;DHT22;12804;51.176;4.452;2023-05-10T07:53:58;16.50;84.30
24686;DHT22;12804;51.176;4.452;2023-05-10T07:56:24;16.40;90.60
24686;DHT22;12804;51.176;4.452;2023-05-10T07:58:52;16.50;93.60
24686;DHT22;12804;51.176;4.452;2023-05-10T08:01:18;16.70;88.40
24686;DHT22;12804;51.176;4.452;2023-05-10T08:03:44;16.50;88.10
24686;DHT22;12804;51.176;4.452;2023-05-10T08:06:09;16.30;94.20
24686;DHT22;12804;51.176;4.452;2023-05-10T08:08:35;15.80;95.70
24686;DHT22;12804;51.176;4.452;2023-05-10T08:11:01;15.60;99.90
24686;DHT22;12804;51.176;4.452;2023-05-10T08:13:27;15.80;99.90
24686;DHT22;12804;51.176;4.452;2023-05-10T08:15:53;16.00;98.00
24686;DHT22;12804;51.176;4.452;2023-05-10T08:18:19;16.40;93.40
24686;DHT22;12804;51.176;4.452;2023-05-10T08:20:45;16.50;91.20
24686;DHT22;12804;51.176;4.452;2023-05-10T08:23:14;16.70;89.10
24686;DHT22;12804;51.176;4.452;2023-05-10T08:25:40;16.90;85.00
24686;DHT22;12804;51.176;4.452;2023-05-10T08:28:06;17.20;74.20
24686;DHT22;12804;51.176;4.452;2023-05-10T08:30:32;17.40;61.70
24686;DHT22;12804;51.176;4.452;2023-05-10T08:32:57;17.50;56.50
24686;DHT22;12804;51.176;4.452;2023-05-10T08:35:23;17.30;47.00
24686;DHT22;12804;51.176;4.452;2023-05-10T08:37:51;16.80;70.20
24686;DHT22;12804;51.176;4.452;2023-05-10T08:40:19;17.00;74.90
24686;DHT22;12804;51.176;4.452;2023-05-10T08:42:54;17.40;55.60
24686;DHT22;12804;51.176;4.452;2023-05-10T08:45:23;17.00;66.60
24686;DHT22;12804;51.176;4.452;2023-05-10T08:47:50;17.10;68.30
24686;DHT22;12804;51.176;4.452;2023-05-10T08:50:19;17.20;60.90
24686;DHT22;12804;51.176;4.452;2023-05-10T08:52:47;17.50;59.00
24686;DHT22;12804;51.176;4.452;2023-05-10T08:55:14;17.70;61.60
24686;DHT22;12804;51.176;4.452;2023-05-10T08:57:40;17.10;68.90
24686;DHT22;12804;51.176;4.452;2023-05-10T09:00:07;16.80;73.10
24686;DHT22;12804;51.176;4.452;2023-05-10T09:02:34;16.70;76.50
24686;DHT22;12804;51.176;4.452;2023-05-10T09:05:00;16.80;77.80
24686;DHT22;12804;51.176;4.452;2023-05-10T09:07:27;16.70;66.60
24686;DHT22;12804;51.176;4.452;2023-05-10T09:09:53;16.50;79.20
24686;DHT22;12804;51.176;4.452;2023-05-10T09:12:20;16.60;84.80
24686;DHT22;12804;51.176;4.452;2023-05-10T09:14:46;16.50;87.90
24686;DHT22;12804;51.176;4.452;2023-05-10T09:17:12;16.20;93.10
24686;DHT22;12804;51.176;4.452;2023-05-10T09:19:38;16.60;93.30
24686;DHT22;12804;51.176;4.452;2023-05-10T09:22:04;16.90;76.10
24686;DHT22;12804;51.176;4.452;2023-05-10T09:24:30;16.80;73.60
24686;DHT22;12804;51.176;4.452;2023-05-10T09:26:57;16.50;88.30
24686;DHT22;12804;51.176;4.452;2023-05-10T09:29:23;16.10;95.30
24686;DHT22;12804;51.176;4.452;2023-05-10T09:31:52;15.80;98.60
24686;DHT22;12804;51.176;4.452;2023-05-10T09:34:31;15.30;99.90
24686;DHT22;12804;51.176;4.452;2023-05-10T09:37:00;15.30;99.90
24686;DHT22;12804;51.176;4.452;2023-05-10T09:39:33;15.30;99.90
24686;DHT22;12804;51.176;4.452;2023-05-10T09:42:04;15.00;99.90
24686;DHT22;12804;51.176;4.452;2023-05-10T09:44:31;15.00;99.90
24686;DHT22;12804;51.176;4.452;2023-05-10T09:46:58;15.30;99.90
24686;DHT22;12804;51.176;4.452;2023-05-10T09:49:24;15.40;99.90
24686;DHT22;12804;51.176;4.452;2023-05-10T09:52:02;15.30;99.90
24686;DHT22;12804;51.176;4.452;2023-05-10T09:54:29;15.50;99.90
24686;DHT22;12804;51.176;4.452;2023-05-10T09:56:55;15.70;99.90
24686;DHT22;12804;51.176;4.452;2023-05-10T09:59:20;15.40;99.90
24686;DHT22;12804;51.176;4.452;2023-05-10T10:01:57;15.20;99.90
24686;DHT22;12804;51.176;4.452;2023-05-10T10:04:23;14.90;99.90
24686;DHT22;12804;51.176;4.452;2023-05-10T10:07:00;14.80;99.90
24686;DHT22;12804;51.176;4.452;2023-05-10T10:09:26;15.10;99.90
24686;DHT22;12804;51.176;4.452;2023-05-10T10:11:54;14.80;99.90
24686;DHT22;12804;51.176;4.452;2023-05-10T10:14:20;14.90;99.90
24686;DHT22;12804;51.176;4.452;2023-05-10T10:16:47;15.10;99.90
24686;DHT22;12804;51.176;4.452;2023-05-10T10:19:13;15.30;99.90
24686;DHT22;12804;51.176;4.452;2023-05-10T10:21:39;15.70;99.90
24686;DHT22;12804;51.176;4.452;2023-05-10T10:24:05;16.00;99.90
24686;DHT22;12804;51.176;4.452;2023-05-10T10:26:33;16.90;98.10
24686;DHT22;12804;51.176;4.452;2023-05-10T10:31:46;16.90;92.80
24686;DHT22;12804;51.176;4.452;2023-05-10T10:34:26;16.50;95.60
24686;DHT22;12804;51.176;4.452;2023-05-10T10:36:56;16.70;96.60
24686;DHT22;12804;51.176;4.452;2023-05-10T10:39:24;17.20;91.70
24686;DHT22;12804;51.176;4.452;2023-05-10T10:41:54;16.60;94.50
24686;DHT22;12804;51.176;4.452;2023-05-10T10:44:33;16.70;97.00
24686;DHT22;12804;51.176;4.452;2023-05-10T10:52:24;15.90;99.90
24686;DHT22;12804;51.176;4.452;2023-05-10T10:55:10;15.70;99.90
24686;DHT22;12804;51.176;4.452;2023-05-10T10:57:45;15.80;99.90
24686;DHT22;12804;51.176;4.452;2023-05-10T11:00:40;15.70;99.90
24686;DHT22;12804;51.176;4.452;2023-05-10T11:03:09;15.30;99.90
24686;DHT22;12804;51.176;4.452;2023-05-10T11:05:43;15.40;99.90
24686;DHT22;12804;51.176;4.452;2023-05-10T11:08:35;15.40;99.90
24686;DHT22;12804;51.176;4.452;2023-05-10T11:11:06;15.50;99.90
24686;DHT22;12804;51.176;4.452;2023-05-10T11:13:46;15.60;99.90
24686;DHT22;12804;51.176;4.452;2023-05-10T11:16:23;15.60;99.90
24686;DHT22;12804;51.176;4.452;2023-05-10T11:18:52;15.20;99.90
24686;DHT22;12804;51.176;4.452;2023-05-10T11:21:18;15.00;99.90
24686;DHT22;12804;51.176;4.452;2023-05-10T11:26:13;14.90;99.90
24686;DHT22;12804;51.176;4.452;2023-05-10T11:28:49;14.80;99.90
24686;DHT22;12804;51.176;4.452;2023-05-10T11:31:19;14.70;99.90
24686;DHT22;12804;51.176;4.452;2023-05-10T11:33:53;14.80;99.90
24686;DHT22;12804;51.176;4.452;2023-05-10T11:36:33;14.90;99.90
24686;DHT22;12804;51.176;4.452;2023-05-10T11:38:59;14.90;99.90
24686;DHT22;12804;51.176;4.452;2023-05-10T11:41:27;14.60;99.90
24686;DHT22;12804;51.176;4.452;2023-05-10T11:43:54;14.50;99.90
24686;DHT22;12804;51.176;4.452;2023-05-10T11:46:26;14.40;99.90
24686;DHT22;12804;51.176;4.452;2023-05-10T11:48:59;14.50;99.90
24686;DHT22;12804;51.176;4.452;2023-05-10T11:51:29;14.60;99.90
24686;DHT22;12804;51.176;4.452;2023-05-10T11:53:58;14.60;99.90
24686;DHT22;12804;51.176;4.452;2023-05-10T11:56:24;14.80;99.90
24686;DHT22;12804;51.176;4.452;2023-05-10T11:58:56;14.90;99.90
24686;DHT22;12804;51.176;4.452;2023-05-10T12:01:26;14.90;99.90
24686;DHT22;12804;51.176;4.452;2023-05-10T12:03:54;14.80;99.90
24686;DHT22;12804;51.176;4.452;2023-05-10T12:06:20;14.90;99.90
24686;DHT22;12804;51.176;4.452;2023-05-10T12:08:48;15.20;99.90
24686;DHT22;12804;51.176;4.452;2023-05-10T12:11:18;15.20;99.90
24686;DHT22;12804;51.176;4.452;2023-05-10T12:13:44;15.10;99.90
24686;DHT22;12804;51.176;4.452;2023-05-10T12:16:15;15.00;99.90
24686;DHT22;12804;51.176;4.452;2023-05-10T12:18:41;15.30;99.90
24686;DHT22;12804;51.176;4.452;2023-05-10T12:21:12;15.50;99.90
24686;DHT22;12804;51.176;4.452;2023-05-10T12:23:38;15.40;99.90
24686;DHT22;12804;51.176;4.452;2023-05-10T12:26:05;15.40;99.90
24686;DHT22;12804;51.176;4.452;2023-05-10T12:28:32;15.30;99.90
24686;DHT22;12804;51.176;4.452;2023-05-10T12:31:01;15.30;99.90
24686;DHT22;12804;51.176;4.452;2023-05-10T12:33:38;15.40;99.90
24686;DHT22;12804;51.176;4.452;2023-05-10T12:36:05;15.40;99.90
24686;DHT22;12804;51.176;4.452;2023-05-10T12:38:34;15.30;99.90
24686;DHT22;12804;51.176;4.452;2023-05-10T12:41:02;15.30;99.90
24686;DHT22;12804;51.176;4.452;2023-05-10T12:43:29;15.40;99.90
24686;DHT22;12804;51.176;4.452;2023-05-10T12:45:56;15.40;99.90
24686;DHT22;12804;51.176;4.452;2023-05-10T12:48:22;15.50;99.90
24686;DHT22;12804;51.176;4.452;2023-05-10T12:50:48;15.80;99.90
24686;DHT22;12804;51.176;4.452;2023-05-10T12:53:15;16.30;99.90
24686;DHT22;12804;51.176;4.452;2023-05-10T12:55:44;16.00;99.60
24686;DHT22;12804;51.176;4.452;2023-05-10T12:58:10;15.80;99.90
24686;DHT22;12804;51.176;4.452;2023-05-10T13:00:36;15.60;99.90
24686;DHT22;12804;51.176;4.452;2023-05-10T13:03:04;15.70;99.90
24686;DHT22;12804;51.176;4.452;2023-05-10T13:05:33;15.60;99.90
24686;DHT22;12804;51.176;4.452;2023-05-10T13:07:59;15.90;99.90
24686;DHT22;12804;51.176;4.452;2023-05-10T13:10:24;16.10;99.90
24686;DHT22;12804;51.176;4.452;2023-05-10T13:12:51;16.30;98.30
24686;DHT22;12804;51.176;4.452;2023-05-10T13:15:16;16.30;99.70
24686;DHT22;12804;51.176;4.452;2023-05-10T13:17:42;16.60;98.70
24686;DHT22;12804;51.176;4.452;2023-05-10T13:20:09;16.70;96.50
24686;DHT22;12804;51.176;4.452;2023-05-10T13:22:35;16.80;94.80
24686;DHT22;12804;51.176;4.452;2023-05-10T13:25:02;16.60;94.80
24686;DHT22;12804;51.176;4.452;2023-05-10T13:27:28;16.30;98.50
24686;DHT22;12804;51.176;4.452;2023-05-10T13:29:54;16.50;97.60
24686;DHT22;12804;51.176;4.452;2023-05-10T13:32:20;16.60;99.30
24686;DHT22;12804;51.176;4.452;2023-05-10T13:34:46;16.20;99.90
24686;DHT22;12804;51.176;4.452;2023-05-10T13:37:12;16.00;99.90
24686;DHT22;12804;51.176;4.452;2023-05-10T13:39:38;16.10;99.90
24686;DHT22;12804;51.176;4.452;2023-05-10T13:42:04;16.10;99.90
24686;DHT22;12804;51.176;4.452;2023-05-10T13:44:30;16.00;99.90
24686;DHT22;12804;51.176;4.452;2023-05-10T13:46:56;15.90;99.90
24686;DHT22;12804;51.176;4.452;2023-05-10T13:49:22;15.70;99.90
24686;DHT22;12804;51.176;4.452;2023-05-10T13:51:48;15.50;99.90
24686;DHT22;12804;51.176;4.452;2023-05-10T13:54:14;15.50;99.90
24686;DHT22;12804;51.176;4.452;2023-05-10T13:56:41;15.20;99.90
24686;DHT22;12804;51.176;4.452;2023-05-10T13:59:08;15.20;99.90
24686;DHT22;12804;51.176;4.452;2023-05-10T14:01:33;15.20;99.90
24686;DHT22;12804;51.176;4.452;2023-05-10T14:04:00;15.20;99.90
24686;DHT22;12804;51.176;4.452;2023-05-10T14:06:25;15.10;99.90
24686;DHT22;12804;51.176;4.452;2023-05-10T14:08:53;15.20;99.90
24686;DHT22;12804;51.176;4.452;2023-05-10T14:11:19;15.30;99.90
24686;DHT22;12804;51.176;4.452;2023-05-10T14:13:45;15.40;99.90
24686;DHT22;12804;51.176;4.452;2023-05-10T14:16:11;15.60;99.90
24686;DHT22;12804;51.176;4.452;2023-05-10T14:18:37;15.70;99.90
24686;DHT22;12804;51.176;4.452;2023-05-10T14:21:03;15.60;99.90
24686;DHT22;12804;51.176;4.452;2023-05-10T14:23:29;15.70;99.90
24686;DHT22;12804;51.176;4.452;2023-05-10T14:25:55;15.50;99.90
24686;DHT22;12804;51.176;4.452;2023-05-10T14:28:22;15.80;99.90
24686;DHT22;12804;51.176;4.452;2023-05-10T14:30:49;15.80;99.90
24686;DHT22;12804;51.176;4.452;2023-05-10T14:33:16;15.90;99.90
24686;DHT22;12804;51.176;4.452;2023-05-10T14:35:41;16.10;99.90
24686;DHT22;12804;51.176;4.452;2023-05-10T14:38:08;16.60;99.90
24686;DHT22;12804;51.176;4.452;2023-05-10T14:40:33;16.70;99.90
24686;DHT22;12804;51.176;4.452;2023-05-10T14:43:00;16.80;99.90
24686;DHT22;12804;51.176;4.452;2023-05-10T14:45:26;16.70;99.90
24686;DHT22;12804;51.176;4.452;2023-05-10T14:47:52;16.50;99.90
24686;DHT22;12804;51.176;4.452;2023-05-10T14:50:18;16.90;99.90
24686;DHT22;12804;51.176;4.452;2023-05-10T14:52:44;17.20;99.90
24686;DHT22;12804;51.176;4.452;2023-05-10T14:55:10;17.10;99.90
24686;DHT22;12804;51.176;4.452;2023-05-10T14:57:36;17.00;99.90
24686;DHT22;12804;51.176;4.452;2023-05-10T15:00:03;16.40;99.90
24686;DHT22;12804;51.176;4.452;2023-05-10T15:02:30;15.90;99.90
24686;DHT22;12804;51.176;4.452;2023-05-10T15:04:56;15.70;99.90
24686;DHT22;12804;51.176;4.452;2023-05-10T15:07:23;15.70;99.90
24686;DHT22;12804;51.176;4.452;2023-05-10T15:09:50;15.70;99.90
24686;DHT22;12804;51.176;4.452;2023-05-10T15:12:17;15.50;99.90
24686;DHT22;12804;51.176;4.452;2023-05-10T15:14:43;15.20;99.90
24686;DHT22;12804;51.176;4.452;2023-05-10T15:17:09;15.00;99.90
24686;DHT22;12804;51.176;4.452;2023-05-10T15:19:35;14.70;99.90
24686;DHT22;12804;51.176;4.452;2023-05-10T15:22:02;14.70;99.90
24686;DHT22;12804;51.176;4.452;2023-05-10T15:24:28;14.50;99.90
24686;DHT22;12804;51.176;4.452;2023-05-10T15:26:54;14.50;99.90
24686;DHT22;12804;51.176;4.452;2023-05-10T15:29:20;14.70;99.90
24686;DHT22;12804;51.176;4.452;2023-05-10T15:31:50;14.60;99.90
24686;DHT22;12804;51.176;4.452;2023-05-10T15:34:17;14.60;99.90
24686;DHT22;12804;51.176;4.452;2023-05-10T15:36:43;14.60;99.90
24686;DHT22;12804;51.176;4.452;2023-05-10T15:39:10;14.60;99.90
24686;DHT22;12804;51.176;4.452;2023-05-10T15:41:36;14.60;99.90
24686;DHT22;12804;51.176;4.452;2023-05-10T15:44:02;14.70;99.90
24686;DHT22;12804;51.176;4.452;2023-05-10T15:46:29;14.80;99.90
24686;DHT22;12804;51.176;4.452;2023-05-10T15:48:56;14.80;99.90
24686;DHT22;12804;51.176;4.452;2023-05-10T15:51:22;14.70;99.90
24686;DHT22;12804;51.176;4.452;2023-05-10T15:53:48;14.80;99.90
24686;DHT22;12804;51.176;4.452;2023-05-10T15:56:14;14.90;99.90
24686;DHT22;12804;51.176;4.452;2023-05-10T15:58:40;15.10;99.90